BOE77W LIMC-EIDW
Flight info
| Callsign | BOE77W |
|---|---|
| Flight time | 1h 59m |
| Altitude | 40000 |
| Route | AOSTA DCT ORSUD DCT MOLUS DCT IBODI DCT GOTED DCT TRO DCT CLM DCT KOPOR DCT VESAN DCT RATUK DCT SOVAT DCT LESTA UP6 RODOL UL28 LELDO M145 BAGSO BAGSO4L |
| Aircraft | B77W/H-SDE1E2E3FGHIJ2J3J4J5M1RWXY/LB1D1 |
Departure
| Time | 2026-05-01 08:53 |
|---|---|
| Airport | Milan Malpensa International Airport (LIMC) |
Arrival
| Time | 2026-05-01 10:52 |
|---|---|
| Airport | Dublin Airport (EIDW) |
| Time | Latitude | Longitude | Altitude | Speed | Heading |
|---|---|---|---|---|---|
| 2026-05-01 08:23 | 45.62873 | 8.71655 | 741 ft | 0 kts | 234° |
| 2026-05-01 08:39 | 45.62888 | 8.71683 | 741 ft | 4 kts | 238° |
| 2026-05-01 08:39 | 45.62898 | 8.71716 | 741 ft | 4 kts | 272° |
| 2026-05-01 08:39 | 45.62896 | 8.71743 | 741 ft | 4 kts | 252° |
| 2026-05-01 08:40 | 45.62895 | 8.71762 | 741 ft | 4 kts | 171° |
| 2026-05-01 08:40 | 45.62868 | 8.71770 | 743 ft | 4 kts | 168° |
| 2026-05-01 08:40 | 45.62859 | 8.71772 | 744 ft | 0 kts | 169° |
| 2026-05-01 08:43 | 45.62846 | 8.71776 | 742 ft | 4 kts | 169° |
| 2026-05-01 08:43 | 45.62806 | 8.71786 | 744 ft | 9 kts | 169° |
| 2026-05-01 08:44 | 45.62722 | 8.71810 | 744 ft | 15 kts | 169° |
| 2026-05-01 08:44 | 45.62607 | 8.71842 | 742 ft | 14 kts | 169° |
| 2026-05-01 08:44 | 45.62514 | 8.71868 | 742 ft | 14 kts | 169° |
| 2026-05-01 08:44 | 45.62418 | 8.71895 | 742 ft | 14 kts | 168° |
| 2026-05-01 08:45 | 45.62315 | 8.71924 | 743 ft | 15 kts | 170° |
| 2026-05-01 08:45 | 45.62174 | 8.71961 | 742 ft | 28 kts | 169° |
| 2026-05-01 08:45 | 45.61946 | 8.72026 | 744 ft | 39 kts | 168° |
| 2026-05-01 08:45 | 45.61706 | 8.72092 | 743 ft | 31 kts | 169° |
| 2026-05-01 08:46 | 45.61504 | 8.72149 | 743 ft | 28 kts | 168° |
| 2026-05-01 08:46 | 45.61310 | 8.72203 | 744 ft | 27 kts | 169° |
| 2026-05-01 08:46 | 45.61128 | 8.72252 | 742 ft | 19 kts | 169° |
| 2026-05-01 08:46 | 45.61056 | 8.72281 | 743 ft | 10 kts | 144° |
| 2026-05-01 08:47 | 45.61043 | 8.72376 | 744 ft | 11 kts | 86° |
| 2026-05-01 08:47 | 45.61059 | 8.72520 | 743 ft | 18 kts | 79° |
| 2026-05-01 08:47 | 45.61082 | 8.72696 | 746 ft | 18 kts | 79° |
| 2026-05-01 08:47 | 45.61106 | 8.72875 | 747 ft | 18 kts | 79° |
| 2026-05-01 08:48 | 45.61142 | 8.73044 | 743 ft | 17 kts | 52° |
| 2026-05-01 08:48 | 45.61234 | 8.73144 | 743 ft | 17 kts | 35° |
| 2026-05-01 08:48 | 45.61332 | 8.73241 | 743 ft | 17 kts | 32° |
| 2026-05-01 08:48 | 45.61447 | 8.73254 | 744 ft | 17 kts | 350° |
| 2026-05-01 08:49 | 45.61562 | 8.73227 | 746 ft | 10 kts | 353° |
| 2026-05-01 08:49 | 45.61606 | 8.73252 | 743 ft | 7 kts | 49° |
| 2026-05-01 08:49 | 45.61629 | 8.73365 | 745 ft | 15 kts | 79° |
| 2026-05-01 08:49 | 45.61601 | 8.73503 | 744 ft | 15 kts | 116° |
| 2026-05-01 08:50 | 45.61588 | 8.73566 | 744 ft | 0 kts | 98° |
| 2026-05-01 08:51 | 45.61588 | 8.73569 | 744 ft | 2 kts | 98° |
| 2026-05-01 08:52 | 45.61590 | 8.73679 | 741 ft | 12 kts | 83° |
| 2026-05-01 08:52 | 45.61630 | 8.73724 | 744 ft | 7 kts | 3° |
| 2026-05-01 08:52 | 45.61838 | 8.73675 | 741 ft | 84 kts | 349° |
| 2026-05-01 08:52 | 45.62904 | 8.73375 | 893 ft | 211 kts | 347° |
| 2026-05-01 08:53 | 45.64363 | 8.72934 | 2261 ft | 211 kts | 353° |
| 2026-05-01 08:53 | 45.65806 | 8.72836 | 3678 ft | 208 kts | 5° |
| 2026-05-01 08:53 | 45.67067 | 8.73688 | 4987 ft | 200 kts | 49° |
| 2026-05-01 08:53 | 45.67870 | 8.75349 | 6069 ft | 205 kts | 53° |
| 2026-05-01 08:54 | 45.68703 | 8.77029 | 7094 ft | 216 kts | 52° |
| 2026-05-01 08:54 | 45.69599 | 8.78731 | 8280 ft | 211 kts | 51° |
| 2026-05-01 08:54 | 45.70528 | 8.80402 | 9352 ft | 217 kts | 51° |
| 2026-05-01 08:54 | 45.71477 | 8.82091 | 10518 ft | 218 kts | 53° |
| 2026-05-01 08:55 | 45.72203 | 8.84095 | 11274 ft | 237 kts | 74° |
| 2026-05-01 08:55 | 45.72331 | 8.86493 | 12257 ft | 248 kts | 95° |
| 2026-05-01 08:55 | 45.71784 | 8.88875 | 13358 ft | 258 kts | 118° |
| 2026-05-01 08:55 | 45.70561 | 8.90803 | 14487 ft | 269 kts | 142° |
| 2026-05-01 08:56 | 45.68805 | 8.91829 | 15533 ft | 281 kts | 169° |
| 2026-05-01 08:56 | 45.67498 | 8.91843 | 16241 ft | 289 kts | 187° |
| 2026-05-01 08:56 | 45.65608 | 8.90763 | 17291 ft | 300 kts | 216° |
| 2026-05-01 08:56 | 45.64242 | 8.88494 | 18316 ft | 308 kts | 246° |
| 2026-05-01 08:57 | 45.63836 | 8.84475 | 19591 ft | 308 kts | 277° |
| 2026-05-01 08:57 | 45.63950 | 8.82441 | 20204 ft | 313 kts | 277° |
| 2026-05-01 08:57 | 45.64053 | 8.79314 | 21230 ft | 317 kts | 274° |
| 2026-05-01 08:57 | 45.64080 | 8.76144 | 22308 ft | 321 kts | 273° |
| 2026-05-01 08:58 | 45.64045 | 8.72932 | 23345 ft | 327 kts | 268° |
| 2026-05-01 08:58 | 45.63692 | 8.69645 | 24040 ft | 347 kts | 261° |
| 2026-05-01 08:58 | 45.63121 | 8.66132 | 24249 ft | 378 kts | 258° |
| 2026-05-01 08:58 | 45.62456 | 8.62340 | 24444 ft | 408 kts | 258° |
| 2026-05-01 08:59 | 45.61756 | 8.58275 | 24625 ft | 435 kts | 258° |
| 2026-05-01 08:59 | 45.61045 | 8.53993 | 25114 ft | 450 kts | 258° |
| 2026-05-01 08:59 | 45.60335 | 8.49584 | 25819 ft | 459 kts | 259° |
| 2026-05-01 08:59 | 45.59629 | 8.45122 | 26653 ft | 463 kts | 259° |
| 2026-05-01 09:00 | 45.58919 | 8.40614 | 27514 ft | 467 kts | 259° |
| 2026-05-01 09:00 | 45.58201 | 8.36072 | 28331 ft | 470 kts | 259° |
| 2026-05-01 09:00 | 45.57798 | 8.31447 | 28898 ft | 473 kts | 273° |
| 2026-05-01 09:00 | 45.58360 | 8.26835 | 29523 ft | 470 kts | 292° |
| 2026-05-01 09:01 | 45.59512 | 8.22448 | 30155 ft | 474 kts | 293° |
| 2026-05-01 09:01 | 45.60637 | 8.17990 | 30760 ft | 479 kts | 291° |
| 2026-05-01 09:01 | 45.61714 | 8.13476 | 31369 ft | 482 kts | 290° |
| 2026-05-01 09:01 | 45.62412 | 8.10462 | 31785 ft | 483 kts | 290° |
| 2026-05-01 09:02 | 45.63461 | 8.05886 | 32340 ft | 486 kts | 290° |
| 2026-05-01 09:02 | 45.64865 | 7.99742 | 33152 ft | 486 kts | 290° |
| 2026-05-01 09:02 | 45.65914 | 7.95170 | 33855 ft | 483 kts | 290° |
| 2026-05-01 09:02 | 45.66958 | 7.90625 | 34587 ft | 480 kts | 290° |
| 2026-05-01 09:03 | 45.67993 | 7.86106 | 35265 ft | 475 kts | 289° |
| 2026-05-01 09:03 | 45.69006 | 7.81675 | 35866 ft | 473 kts | 289° |
| 2026-05-01 09:03 | 45.70025 | 7.77207 | 36436 ft | 471 kts | 289° |
| 2026-05-01 09:03 | 45.71037 | 7.72759 | 37039 ft | 468 kts | 289° |
| 2026-05-01 09:04 | 45.72046 | 7.68320 | 37622 ft | 467 kts | 289° |
| 2026-05-01 09:04 | 45.73045 | 7.63911 | 38200 ft | 464 kts | 289° |
| 2026-05-01 09:04 | 45.74036 | 7.59527 | 38810 ft | 461 kts | 289° |
| 2026-05-01 09:04 | 45.75020 | 7.55168 | 39296 ft | 459 kts | 289° |
| 2026-05-01 09:05 | 45.76000 | 7.50815 | 39636 ft | 459 kts | 289° |
| 2026-05-01 09:05 | 45.76984 | 7.46442 | 39992 ft | 460 kts | 289° |
| 2026-05-01 09:05 | 45.77966 | 7.42070 | 40283 ft | 461 kts | 289° |
| 2026-05-01 09:05 | 45.79027 | 7.37721 | 40340 ft | 463 kts | 296° |
| 2026-05-01 09:06 | 45.80728 | 7.33806 | 40367 ft | 464 kts | 311° |
| 2026-05-01 09:06 | 45.83075 | 7.30745 | 40359 ft | 459 kts | 326° |
| 2026-05-01 09:06 | 45.88362 | 7.25654 | 40354 ft | 457 kts | 326° |
| 2026-05-01 09:07 | 45.93575 | 7.20435 | 40350 ft | 456 kts | 325° |
| 2026-05-01 09:07 | 45.98740 | 7.15145 | 40307 ft | 456 kts | 324° |
| 2026-05-01 09:08 | 46.03923 | 7.09833 | 40298 ft | 457 kts | 324° |
| 2026-05-01 09:08 | 46.09109 | 7.04510 | 40303 ft | 459 kts | 324° |
| 2026-05-01 09:09 | 46.14317 | 6.99148 | 40319 ft | 460 kts | 324° |
| 2026-05-01 09:09 | 46.19540 | 6.93766 | 40297 ft | 462 kts | 324° |
| 2026-05-01 09:10 | 46.24772 | 6.88351 | 40302 ft | 463 kts | 324° |
| 2026-05-01 09:10 | 46.29935 | 6.82866 | 40301 ft | 463 kts | 323° |
| 2026-05-01 09:11 | 46.35074 | 6.77240 | 40305 ft | 463 kts | 323° |
| 2026-05-01 09:11 | 46.40205 | 6.71611 | 40318 ft | 463 kts | 323° |
| 2026-05-01 09:12 | 46.45354 | 6.65974 | 40317 ft | 464 kts | 323° |
| 2026-05-01 09:12 | 46.50507 | 6.60330 | 40329 ft | 464 kts | 323° |
| 2026-05-01 09:13 | 46.55655 | 6.54680 | 40332 ft | 464 kts | 323° |
| 2026-05-01 09:13 | 46.60806 | 6.49011 | 40333 ft | 464 kts | 323° |
| 2026-05-01 09:14 | 46.65959 | 6.43326 | 40314 ft | 465 kts | 323° |
| 2026-05-01 09:14 | 46.71122 | 6.37616 | 40314 ft | 465 kts | 322° |
| 2026-05-01 09:15 | 46.76241 | 6.31939 | 40300 ft | 465 kts | 322° |
| 2026-05-01 09:15 | 46.81401 | 6.26204 | 40297 ft | 465 kts | 323° |
| 2026-05-01 09:16 | 46.86547 | 6.20470 | 40291 ft | 465 kts | 323° |
| 2026-05-01 09:17 | 46.94273 | 6.11836 | 40283 ft | 466 kts | 322° |
| 2026-05-01 09:17 | 47.02008 | 6.03158 | 40293 ft | 467 kts | 322° |
| 2026-05-01 09:18 | 47.09735 | 5.94457 | 40283 ft | 469 kts | 322° |
| 2026-05-01 09:19 | 47.17521 | 5.85655 | 40276 ft | 471 kts | 322° |
| 2026-05-01 09:20 | 47.25315 | 5.76813 | 40265 ft | 472 kts | 322° |
| 2026-05-01 09:21 | 47.35718 | 5.64954 | 40266 ft | 475 kts | 322° |
| 2026-05-01 09:21 | 47.43576 | 5.55957 | 40269 ft | 476 kts | 322° |
| 2026-05-01 09:22 | 47.53642 | 5.43332 | 40265 ft | 476 kts | 311° |
| 2026-05-01 09:23 | 47.59630 | 5.31561 | 40264 ft | 477 kts | 305° |
| 2026-05-01 09:24 | 47.65482 | 5.19592 | 40262 ft | 478 kts | 306° |
| 2026-05-01 09:25 | 47.73332 | 5.03663 | 40266 ft | 479 kts | 306° |
| 2026-05-01 09:26 | 47.79242 | 4.91636 | 40256 ft | 479 kts | 306° |
| 2026-05-01 09:26 | 47.85117 | 4.79616 | 40251 ft | 477 kts | 305° |
| 2026-05-01 09:27 | 47.90930 | 4.67668 | 40251 ft | 476 kts | 305° |
| 2026-05-01 09:28 | 47.94812 | 4.59658 | 40249 ft | 476 kts | 305° |
| 2026-05-01 09:28 | 47.98696 | 4.51626 | 40254 ft | 477 kts | 305° |
| 2026-05-01 09:29 | 48.04523 | 4.39529 | 40251 ft | 478 kts | 305° |
| 2026-05-01 09:30 | 48.10317 | 4.27443 | 40257 ft | 478 kts | 305° |
| 2026-05-01 09:30 | 48.16126 | 4.15273 | 40262 ft | 479 kts | 305° |
| 2026-05-01 09:31 | 48.19994 | 4.07138 | 40266 ft | 479 kts | 305° |
| 2026-05-01 09:32 | 48.25871 | 3.95058 | 40267 ft | 480 kts | 310° |
| 2026-05-01 09:32 | 48.32772 | 3.84139 | 40269 ft | 480 kts | 314° |
| 2026-05-01 09:33 | 48.37413 | 3.76918 | 40259 ft | 480 kts | 313° |
| 2026-05-01 09:34 | 48.44422 | 3.65836 | 40262 ft | 497 kts | 313° |
| 2026-05-01 09:34 | 48.51679 | 3.54268 | 40259 ft | 513 kts | 313° |
| 2026-05-01 09:35 | 48.59055 | 3.42463 | 40248 ft | 514 kts | 313° |
| 2026-05-01 09:35 | 48.61462 | 3.38601 | 40234 ft | 497 kts | 313° |
| 2026-05-01 09:36 | 48.63800 | 3.34846 | 40231 ft | 483 kts | 313° |
| 2026-05-01 09:36 | 48.68382 | 3.27464 | 40246 ft | 480 kts | 313° |
| 2026-05-01 09:37 | 48.72207 | 3.21285 | 40249 ft | 479 kts | 313° |
| 2026-05-01 09:37 | 48.78996 | 3.10285 | 40240 ft | 478 kts | 312° |
| 2026-05-01 09:38 | 48.86281 | 2.99928 | 40253 ft | 479 kts | 324° |
| 2026-05-01 09:39 | 48.94899 | 2.92129 | 40248 ft | 481 kts | 330° |
| 2026-05-01 09:39 | 49.00701 | 2.87155 | 40245 ft | 481 kts | 330° |
| 2026-05-01 09:40 | 49.09435 | 2.79517 | 40238 ft | 482 kts | 330° |
| 2026-05-01 09:41 | 49.15247 | 2.74382 | 40237 ft | 483 kts | 330° |
| 2026-05-01 09:41 | 49.23973 | 2.66652 | 40231 ft | 483 kts | 329° |
| 2026-05-01 09:42 | 49.29757 | 2.61514 | 40234 ft | 483 kts | 329° |
| 2026-05-01 09:43 | 49.41373 | 2.51150 | 40234 ft | 482 kts | 329° |
| 2026-05-01 09:43 | 49.47182 | 2.45948 | 40235 ft | 482 kts | 329° |
| 2026-05-01 09:44 | 49.56339 | 2.39728 | 40240 ft | 482 kts | 343° |
| 2026-05-01 09:45 | 49.62792 | 2.36869 | 40239 ft | 482 kts | 344° |
| 2026-05-01 09:45 | 49.72490 | 2.32571 | 40230 ft | 483 kts | 343° |
| 2026-05-01 09:46 | 49.78948 | 2.29632 | 40231 ft | 483 kts | 343° |
| 2026-05-01 09:46 | 49.85358 | 2.26690 | 40230 ft | 483 kts | 343° |
| 2026-05-01 09:47 | 49.91815 | 2.23721 | 40234 ft | 483 kts | 343° |
| 2026-05-01 09:47 | 49.98271 | 2.20747 | 40234 ft | 484 kts | 343° |
| 2026-05-01 09:48 | 50.04690 | 2.17783 | 40231 ft | 484 kts | 343° |
| 2026-05-01 09:48 | 50.11162 | 2.14785 | 40232 ft | 484 kts | 343° |
| 2026-05-01 09:49 | 50.17628 | 2.11781 | 40227 ft | 485 kts | 343° |
| 2026-05-01 09:49 | 50.24096 | 2.08768 | 40229 ft | 485 kts | 343° |
| 2026-05-01 09:50 | 50.30561 | 2.05749 | 40231 ft | 484 kts | 343° |
| 2026-05-01 09:50 | 50.36820 | 2.01885 | 40230 ft | 483 kts | 330° |
| 2026-05-01 09:51 | 50.42302 | 1.95961 | 40232 ft | 482 kts | 318° |
| 2026-05-01 09:51 | 50.47330 | 1.88987 | 40237 ft | 482 kts | 317° |
| 2026-05-01 09:52 | 50.52351 | 1.81984 | 40245 ft | 482 kts | 317° |
| 2026-05-01 09:52 | 50.57404 | 1.75037 | 40237 ft | 481 kts | 318° |
| 2026-05-01 09:53 | 50.62455 | 1.68104 | 40237 ft | 481 kts | 317° |
| 2026-05-01 09:53 | 50.67453 | 1.61213 | 40231 ft | 480 kts | 317° |
| 2026-05-01 09:54 | 50.72472 | 1.54260 | 40229 ft | 479 kts | 317° |
| 2026-05-01 09:54 | 50.77469 | 1.47324 | 40231 ft | 478 kts | 318° |
| 2026-05-01 09:55 | 50.82656 | 1.40720 | 40228 ft | 478 kts | 321° |
| 2026-05-01 09:55 | 50.85994 | 1.36667 | 40237 ft | 478 kts | 321° |
| 2026-05-01 09:56 | 50.91285 | 1.30253 | 40236 ft | 479 kts | 321° |
| 2026-05-01 09:56 | 50.96532 | 1.23822 | 40238 ft | 479 kts | 321° |
| 2026-05-01 09:57 | 51.01799 | 1.17312 | 40239 ft | 480 kts | 321° |
| 2026-05-01 09:57 | 51.07065 | 1.10772 | 40238 ft | 480 kts | 321° |
| 2026-05-01 09:58 | 51.12338 | 1.04207 | 40239 ft | 481 kts | 321° |
| 2026-05-01 09:58 | 51.17612 | 0.97624 | 40235 ft | 481 kts | 321° |
| 2026-05-01 09:59 | 51.22878 | 0.91030 | 40203 ft | 481 kts | 321° |
| 2026-05-01 09:59 | 51.28122 | 0.84445 | 40190 ft | 482 kts | 320° |
| 2026-05-01 10:00 | 51.33403 | 0.77793 | 40228 ft | 482 kts | 320° |
| 2026-05-01 10:00 | 51.38681 | 0.71124 | 40214 ft | 482 kts | 320° |
| 2026-05-01 10:01 | 51.43952 | 0.64445 | 40213 ft | 482 kts | 320° |
| 2026-05-01 10:01 | 51.49177 | 0.57805 | 40212 ft | 482 kts | 320° |
| 2026-05-01 10:02 | 51.54443 | 0.51090 | 40213 ft | 482 kts | 320° |
| 2026-05-01 10:02 | 51.59694 | 0.44377 | 40215 ft | 482 kts | 320° |
| 2026-05-01 10:03 | 51.64948 | 0.37638 | 40208 ft | 483 kts | 320° |
| 2026-05-01 10:03 | 51.70198 | 0.30883 | 40224 ft | 483 kts | 320° |
| 2026-05-01 10:04 | 51.75441 | 0.24117 | 40232 ft | 483 kts | 320° |
| 2026-05-01 10:04 | 51.80687 | 0.17325 | 40239 ft | 483 kts | 320° |
| 2026-05-01 10:05 | 51.85935 | 0.10512 | 40239 ft | 483 kts | 320° |
| 2026-05-01 10:05 | 51.91141 | 0.03730 | 40234 ft | 483 kts | 320° |
| 2026-05-01 10:06 | 51.96374 | -0.03105 | 40195 ft | 483 kts | 320° |
| 2026-05-01 10:06 | 52.00761 | -0.08852 | 40184 ft | 484 kts | 320° |
| 2026-05-01 10:07 | 52.06856 | -0.16863 | 40184 ft | 484 kts | 319° |
| 2026-05-01 10:07 | 52.12091 | -0.23767 | 40182 ft | 484 kts | 319° |
| 2026-05-01 10:08 | 52.19899 | -0.34104 | 40183 ft | 484 kts | 319° |
| 2026-05-01 10:09 | 52.25123 | -0.41047 | 40179 ft | 484 kts | 319° |
| 2026-05-01 10:09 | 52.30339 | -0.48001 | 40181 ft | 483 kts | 319° |
| 2026-05-01 10:10 | 52.35553 | -0.54974 | 40177 ft | 483 kts | 319° |
| 2026-05-01 10:10 | 52.43318 | -0.65401 | 40180 ft | 482 kts | 319° |
| 2026-05-01 10:11 | 52.48508 | -0.72397 | 40183 ft | 482 kts | 319° |
| 2026-05-01 10:11 | 52.53684 | -0.79397 | 40181 ft | 482 kts | 319° |
| 2026-05-01 10:12 | 52.57981 | -0.85223 | 40161 ft | 482 kts | 319° |
| 2026-05-01 10:13 | 52.66604 | -0.96965 | 40178 ft | 481 kts | 319° |
| 2026-05-01 10:13 | 52.71761 | -1.04016 | 40173 ft | 481 kts | 319° |
| 2026-05-01 10:14 | 52.79214 | -1.15068 | 40182 ft | 480 kts | 314° |
| 2026-05-01 10:14 | 52.83993 | -1.22679 | 40186 ft | 480 kts | 314° |
| 2026-05-01 10:15 | 52.88824 | -1.30344 | 40187 ft | 480 kts | 314° |
| 2026-05-01 10:15 | 52.93653 | -1.37978 | 40183 ft | 480 kts | 314° |
| 2026-05-01 10:16 | 52.97678 | -1.44354 | 40180 ft | 480 kts | 314° |
| 2026-05-01 10:17 | 53.05712 | -1.57138 | 40183 ft | 481 kts | 314° |
| 2026-05-01 10:17 | 53.12148 | -1.67431 | 40165 ft | 481 kts | 314° |
| 2026-05-01 10:18 | 53.19376 | -1.79043 | 40159 ft | 481 kts | 314° |
| 2026-05-01 10:19 | 53.23768 | -1.87419 | 40164 ft | 478 kts | 303° |
| 2026-05-01 10:19 | 53.27124 | -1.96943 | 40166 ft | 474 kts | 294° |
| 2026-05-01 10:20 | 53.31453 | -2.11856 | 40167 ft | 475 kts | 294° |
| 2026-05-01 10:20 | 53.34368 | -2.21711 | 40156 ft | 475 kts | 294° |
| 2026-05-01 10:21 | 53.37882 | -2.37132 | 40157 ft | 471 kts | 285° |
| 2026-05-01 10:22 | 53.40790 | -2.52914 | 40154 ft | 471 kts | 285° |
| 2026-05-01 10:23 | 53.43731 | -2.68573 | 40158 ft | 472 kts | 285° |
| 2026-05-01 10:23 | 53.46683 | -2.84350 | 40157 ft | 472 kts | 285° |
| 2026-05-01 10:24 | 53.50567 | -3.05359 | 40161 ft | 472 kts | 285° |
| 2026-05-01 10:25 | 53.52540 | -3.16137 | 38379 ft | 488 kts | 284° |
| 2026-05-01 10:25 | 53.54584 | -3.27363 | 36988 ft | 508 kts | 284° |
| 2026-05-01 10:26 | 53.55609 | -3.32996 | 36406 ft | 499 kts | 284° |
| 2026-05-01 10:26 | 53.56621 | -3.38573 | 35848 ft | 499 kts | 284° |
| 2026-05-01 10:26 | 53.58604 | -3.49586 | 35743 ft | 484 kts | 284° |
| 2026-05-01 10:27 | 53.60496 | -3.60149 | 34427 ft | 461 kts | 284° |
| 2026-05-01 10:27 | 53.62492 | -3.70344 | 32393 ft | 457 kts | 288° |
| 2026-05-01 10:28 | 53.63689 | -3.75281 | 31435 ft | 453 kts | 289° |
| 2026-05-01 10:28 | 53.66065 | -3.84985 | 29650 ft | 441 kts | 288° |
| 2026-05-01 10:28 | 53.67203 | -3.89726 | 28858 ft | 427 kts | 288° |
| 2026-05-01 10:29 | 53.69284 | -3.98460 | 27744 ft | 382 kts | 287° |
| 2026-05-01 10:29 | 53.70256 | -4.02567 | 27251 ft | 372 kts | 287° |
| 2026-05-01 10:30 | 53.71696 | -4.10986 | 26282 ft | 383 kts | 274° |
| 2026-05-01 10:30 | 53.72151 | -4.20175 | 25243 ft | 402 kts | 268° |
| 2026-05-01 10:31 | 53.72457 | -4.29276 | 24132 ft | 368 kts | 268° |
| 2026-05-01 10:31 | 53.72759 | -4.37836 | 23106 ft | 375 kts | 268° |
| 2026-05-01 10:32 | 53.73081 | -4.46916 | 22011 ft | 390 kts | 268° |
| 2026-05-01 10:32 | 53.73246 | -4.51476 | 21469 ft | 388 kts | 268° |
| 2026-05-01 10:32 | 53.73562 | -4.60472 | 20434 ft | 390 kts | 269° |
| 2026-05-01 10:33 | 53.73872 | -4.69516 | 19405 ft | 386 kts | 268° |
| 2026-05-01 10:33 | 53.74177 | -4.78550 | 18282 ft | 372 kts | 269° |
| 2026-05-01 10:34 | 53.74322 | -4.82876 | 17738 ft | 368 kts | 268° |
| 2026-05-01 10:34 | 53.74462 | -4.87192 | 17199 ft | 366 kts | 268° |
| 2026-05-01 10:34 | 53.74599 | -4.91465 | 16682 ft | 364 kts | 268° |
| 2026-05-01 10:35 | 53.74872 | -4.99937 | 15669 ft | 361 kts | 268° |
| 2026-05-01 10:35 | 53.74915 | -5.01308 | 15497 ft | 361 kts | 268° |
| 2026-05-01 10:35 | 53.75048 | -5.05542 | 14994 ft | 360 kts | 268° |
| 2026-05-01 10:35 | 53.75174 | -5.09709 | 14505 ft | 357 kts | 267° |
| 2026-05-01 10:36 | 53.74574 | -5.17785 | 13435 ft | 331 kts | 249° |
| 2026-05-01 10:36 | 53.73838 | -5.21448 | 12976 ft | 327 kts | 246° |
| 2026-05-01 10:36 | 53.73091 | -5.25061 | 12508 ft | 325 kts | 246° |
| 2026-05-01 10:37 | 53.72354 | -5.28656 | 12044 ft | 323 kts | 246° |
| 2026-05-01 10:37 | 53.70901 | -5.35784 | 11111 ft | 319 kts | 246° |
| 2026-05-01 10:37 | 53.70181 | -5.39321 | 10669 ft | 317 kts | 246° |
| 2026-05-01 10:38 | 53.69473 | -5.42800 | 10442 ft | 308 kts | 246° |
| 2026-05-01 10:38 | 53.68790 | -5.46154 | 10296 ft | 297 kts | 245° |
| 2026-05-01 10:38 | 53.68150 | -5.49404 | 10155 ft | 284 kts | 250° |
| 2026-05-01 10:38 | 53.67974 | -5.52713 | 9919 ft | 286 kts | 268° |
| 2026-05-01 10:39 | 53.68127 | -5.56033 | 9688 ft | 281 kts | 268° |
| 2026-05-01 10:39 | 53.68237 | -5.59294 | 9442 ft | 275 kts | 266° |
| 2026-05-01 10:39 | 53.68327 | -5.62448 | 9203 ft | 270 kts | 266° |
| 2026-05-01 10:39 | 53.68226 | -5.65475 | 8964 ft | 248 kts | 245° |
| 2026-05-01 10:40 | 53.67418 | -5.67893 | 8813 ft | 230 kts | 225° |
| 2026-05-01 10:40 | 53.66373 | -5.69896 | 8615 ft | 224 kts | 224° |
| 2026-05-01 10:40 | 53.65351 | -5.71843 | 8438 ft | 217 kts | 221° |
| 2026-05-01 10:40 | 53.64157 | -5.73167 | 8254 ft | 199 kts | 193° |
| 2026-05-01 10:41 | 53.62828 | -5.73341 | 8192 ft | 186 kts | 173° |
| 2026-05-01 10:41 | 53.61568 | -5.72721 | 7822 ft | 197 kts | 158° |
| 2026-05-01 10:41 | 53.59565 | -5.69208 | 7095 ft | 221 kts | 131° |
| 2026-05-01 10:42 | 53.58641 | -5.67088 | 6985 ft | 227 kts | 131° |
| 2026-05-01 10:42 | 53.57695 | -5.64934 | 6969 ft | 228 kts | 131° |
| 2026-05-01 10:42 | 53.56637 | -5.63042 | 6776 ft | 220 kts | 150° |
| 2026-05-01 10:42 | 53.55324 | -5.61768 | 6460 ft | 219 kts | 153° |
| 2026-05-01 10:43 | 53.54010 | -5.60457 | 6118 ft | 220 kts | 152° |
| 2026-05-01 10:43 | 53.52724 | -5.59148 | 5495 ft | 216 kts | 152° |
| 2026-05-01 10:43 | 53.51416 | -5.57816 | 4815 ft | 224 kts | 152° |
| 2026-05-01 10:43 | 53.49984 | -5.56911 | 4439 ft | 223 kts | 181° |
| 2026-05-01 10:44 | 53.48539 | -5.57661 | 4420 ft | 224 kts | 213° |
| 2026-05-01 10:44 | 53.47442 | -5.59523 | 4412 ft | 226 kts | 232° |
| 2026-05-01 10:44 | 53.46603 | -5.61758 | 4387 ft | 226 kts | 234° |
| 2026-05-01 10:44 | 53.45769 | -5.64000 | 4388 ft | 226 kts | 235° |
| 2026-05-01 10:45 | 53.44934 | -5.66233 | 4385 ft | 224 kts | 234° |
| 2026-05-01 10:45 | 53.44106 | -5.68437 | 4348 ft | 224 kts | 234° |
| 2026-05-01 10:45 | 53.43266 | -5.70666 | 4128 ft | 228 kts | 234° |
| 2026-05-01 10:45 | 53.42420 | -5.72906 | 3882 ft | 227 kts | 234° |
| 2026-05-01 10:46 | 53.41579 | -5.75132 | 3623 ft | 225 kts | 234° |
| 2026-05-01 10:46 | 53.40742 | -5.77348 | 3357 ft | 224 kts | 235° |
| 2026-05-01 10:46 | 53.39961 | -5.79567 | 3141 ft | 218 kts | 245° |
| 2026-05-01 10:46 | 53.39778 | -5.82034 | 3033 ft | 219 kts | 269° |
| 2026-05-01 10:47 | 53.39863 | -5.84609 | 2978 ft | 222 kts | 269° |
| 2026-05-01 10:47 | 53.39974 | -5.87161 | 2965 ft | 217 kts | 270° |
| 2026-05-01 10:47 | 53.40104 | -5.89653 | 2961 ft | 212 kts | 271° |
| 2026-05-01 10:47 | 53.40237 | -5.92121 | 2964 ft | 212 kts | 271° |
| 2026-05-01 10:48 | 53.40371 | -5.94574 | 2968 ft | 212 kts | 271° |
| 2026-05-01 10:48 | 53.40503 | -5.97045 | 2965 ft | 212 kts | 271° |
| 2026-05-01 10:48 | 53.40638 | -5.99495 | 2955 ft | 209 kts | 271° |
| 2026-05-01 10:48 | 53.40769 | -6.01851 | 2944 ft | 195 kts | 271° |
| 2026-05-01 10:49 | 53.40891 | -6.04091 | 2741 ft | 191 kts | 270° |
| 2026-05-01 10:49 | 53.41008 | -6.06249 | 2447 ft | 183 kts | 270° |
| 2026-05-01 10:49 | 53.41119 | -6.08280 | 2205 ft | 167 kts | 270° |
| 2026-05-01 10:49 | 53.41220 | -6.10111 | 2009 ft | 150 kts | 269° |
| 2026-05-01 10:50 | 53.41308 | -6.11753 | 1797 ft | 139 kts | 269° |
| 2026-05-01 10:50 | 53.41394 | -6.13386 | 1612 ft | 141 kts | 269° |
| 2026-05-01 10:50 | 53.41484 | -6.15014 | 1393 ft | 139 kts | 268° |
| 2026-05-01 10:50 | 53.41570 | -6.16635 | 1226 ft | 140 kts | 268° |
| 2026-05-01 10:51 | 53.41647 | -6.18257 | 1093 ft | 137 kts | 268° |
| 2026-05-01 10:51 | 53.41732 | -6.19853 | 902 ft | 137 kts | 273° |
| 2026-05-01 10:51 | 53.41824 | -6.21429 | 681 ft | 137 kts | 273° |
| 2026-05-01 10:51 | 53.41911 | -6.23023 | 519 ft | 138 kts | 272° |
| 2026-05-01 10:52 | 53.42007 | -6.24628 | 326 ft | 138 kts | 272° |
| 2026-05-01 10:52 | 53.42091 | -6.26190 | 225 ft | 127 kts | 272° |
| 2026-05-01 10:52 | 53.42156 | -6.27441 | 219 ft | 83 kts | 275° |
| 2026-05-01 10:52 | 53.42193 | -6.28094 | 219 ft | 30 kts | 281° |
| 2026-05-01 10:53 | 53.42274 | -6.28290 | 221 ft | 12 kts | 322° |
| 2026-05-01 10:53 | 53.42350 | -6.28295 | 224 ft | 12 kts | 38° |
| 2026-05-01 10:53 | 53.42368 | -6.28155 | 217 ft | 14 kts | 90° |
| 2026-05-01 10:53 | 53.42361 | -6.27987 | 218 ft | 15 kts | 97° |
| 2026-05-01 10:54 | 53.42349 | -6.27798 | 223 ft | 17 kts | 95° |
| 2026-05-01 10:54 | 53.42337 | -6.27588 | 223 ft | 19 kts | 96° |
| 2026-05-01 10:54 | 53.42327 | -6.27372 | 216 ft | 19 kts | 94° |
| 2026-05-01 10:54 | 53.42314 | -6.27156 | 219 ft | 19 kts | 96° |
| 2026-05-01 10:55 | 53.42301 | -6.26938 | 216 ft | 19 kts | 96° |
| 2026-05-01 10:55 | 53.42288 | -6.26714 | 216 ft | 19 kts | 95° |
| 2026-05-01 10:55 | 53.42276 | -6.26489 | 223 ft | 19 kts | 94° |
| 2026-05-01 10:55 | 53.42267 | -6.26266 | 216 ft | 16 kts | 88° |
| 2026-05-01 10:56 | 53.42301 | -6.26101 | 221 ft | 16 kts | 57° |
| 2026-05-01 10:56 | 53.42383 | -6.25960 | 225 ft | 18 kts | 45° |
| 2026-05-01 10:56 | 53.42454 | -6.25877 | 222 ft | 9 kts | 1° |
| 2026-05-01 10:56 | 53.42498 | -6.25948 | 222 ft | 10 kts | 298° |
| 2026-05-01 10:57 | 53.42506 | -6.26072 | 219 ft | 12 kts | 274° |
| 2026-05-01 10:57 | 53.42511 | -6.26191 | 223 ft | 5 kts | 274° |
| 2026-05-01 10:57 | 53.42513 | -6.26227 | 219 ft | 1 kts | 274° |
| 2026-05-01 10:57 | 53.42514 | -6.26251 | 216 ft | 3 kts | 278° |
| 2026-05-01 10:58 | 53.42524 | -6.26270 | 224 ft | 3 kts | 323° |
| 2026-05-01 10:58 | 53.42552 | -6.26280 | 220 ft | 5 kts | 355° |
| 2026-05-01 10:58 | 53.42573 | -6.26281 | 221 ft | 3 kts | 1° |
| 2026-05-01 10:58 | 53.42585 | -6.26280 | 220 ft | 0 kts | 2° |
| 2026-05-01 10:59 | 53.42587 | -6.26279 | 221 ft | 0 kts | 3° |